createdAt,value
2022-09-02T00:01:02.429Z,100722.35
2022-09-02T00:03:37.294Z,100720.23
2022-09-02T00:06:09.738Z,100718.70
2022-09-02T00:08:42.731Z,100717.66
2022-09-02T00:11:18.696Z,100714.70
2022-09-02T00:13:52.504Z,100713.49
2022-09-02T00:16:25.241Z,100712.49
2022-09-02T00:18:58.014Z,100714.40
2022-09-02T00:21:30.711Z,100711.45
2022-09-02T00:24:02.913Z,100715.41
2022-09-02T00:26:34.883Z,100717.46
2022-09-02T00:29:07.193Z,100715.91
2022-09-02T00:31:39.573Z,100715.92
2022-09-02T00:34:12.755Z,100720.10
2022-09-02T00:36:44.795Z,100720.16
2022-09-02T00:39:17.765Z,100719.70
2022-09-02T00:41:49.842Z,100719.65
2022-09-02T00:44:22.566Z,100721.71
2022-09-02T00:46:54.487Z,100723.61
2022-09-02T00:49:30.008Z,100726.52
2022-09-02T00:52:07.377Z,100726.33
2022-09-02T00:54:46.729Z,100729.23
2022-09-02T00:57:23.576Z,100729.55
2022-09-02T01:00:02.009Z,100728.65
2022-09-02T01:02:34.339Z,100731.70
2022-09-02T01:05:10.971Z,100730.86
2022-09-02T01:07:45.093Z,100729.45
2022-09-02T01:10:20.313Z,100729.75
2022-09-02T01:12:55.849Z,100729.33
2022-09-02T01:15:30.294Z,100731.23
2022-09-02T01:18:02.743Z,100730.17
2022-09-02T01:20:35.407Z,100733.15
2022-09-02T01:23:07.876Z,100728.80
2022-09-02T01:25:40.167Z,100725.64
2022-09-02T01:28:15.326Z,100725.72
2022-09-02T01:30:49.971Z,100725.64
2022-09-02T01:33:25.403Z,100726.57
2022-09-02T01:35:58.501Z,100729.26
2022-09-02T01:38:30.892Z,100728.45
2022-09-02T01:41:02.806Z,100733.13
2022-09-02T01:43:34.765Z,100729.98
2022-09-02T01:46:07.051Z,100729.33
2022-09-02T01:48:39.393Z,100726.41
2022-09-02T01:51:16.816Z,100723.98
2022-09-02T01:53:50.408Z,100721.92
2022-09-02T01:56:22.681Z,100726.65
2022-09-02T01:58:56.513Z,100727.02
2022-09-02T02:01:28.467Z,100727.45
2022-09-02T02:04:02.498Z,100726.80
2022-09-02T02:06:34.542Z,100725.02
2022-09-02T02:09:07.093Z,100723.73
2022-09-02T02:11:39.651Z,100726.95
2022-09-02T02:14:12.801Z,100731.66
2022-09-02T02:16:51.913Z,100733.98
2022-09-02T02:19:23.825Z,100733.77
2022-09-02T02:21:55.932Z,100736.02
2022-09-02T02:24:28.044Z,100730.30
2022-09-02T02:27:00.084Z,100730.34
2022-09-02T02:29:32.700Z,100728.60
2022-09-02T02:32:05.146Z,100730.03
2022-09-02T02:34:38.118Z,100726.70
2022-09-02T02:37:12.362Z,100724.80
2022-09-02T02:39:45.618Z,100721.37
2022-09-02T02:42:18.017Z,100720.27
2022-09-02T02:44:49.925Z,100721.52
2022-09-02T02:47:22.464Z,100721.78
2022-09-02T02:49:54.699Z,100725.13
2022-09-02T02:52:27.254Z,100724.84
2022-09-02T02:54:59.247Z,100724.89
2022-09-02T02:57:31.309Z,100724.81
2022-09-02T03:00:08.715Z,100723.86
2022-09-02T03:02:41.036Z,100722.27
2022-09-02T03:05:15.193Z,100719.64
2022-09-02T03:07:47.435Z,100719.60
2022-09-02T03:10:20.680Z,100718.27
2022-09-02T03:12:52.688Z,100714.63
2022-09-02T03:15:25.170Z,100716.10
2022-09-02T03:17:59.420Z,100720.68
2022-09-02T03:20:31.581Z,100720.21
2022-09-02T03:23:05.954Z,100717.30
2022-09-02T03:25:38.762Z,100718.96
2022-09-02T03:28:18.008Z,100721.13
2022-09-02T03:30:50.657Z,100727.30
2022-09-02T03:33:23.173Z,100730.34
2022-09-02T03:35:55.253Z,100730.93
2022-09-02T03:38:27.562Z,100731.29
2022-09-02T03:41:00.359Z,100730.94
2022-09-02T03:43:32.509Z,100737.22
2022-09-02T03:46:05.455Z,100737.15
2022-09-02T03:48:37.883Z,100737.86
2022-09-02T03:51:10.523Z,100740.63
2022-09-02T03:53:42.503Z,100741.83
2022-09-02T03:56:16.118Z,100748.09
2022-09-02T03:58:50.243Z,100749.35
2022-09-02T04:01:29.051Z,100752.33
2022-09-02T04:04:07.743Z,100752.16
2022-09-02T04:06:41.379Z,100756.56
2022-09-02T04:09:13.306Z,100762.37
2022-09-02T04:11:45.620Z,100761.38
2022-09-02T04:14:17.948Z,100758.23
2022-09-02T04:16:50.016Z,100764.83
2022-09-02T04:19:22.153Z,100762.20
2022-09-02T04:21:54.442Z,100765.52
2022-09-02T04:24:26.712Z,100766.52
2022-09-02T04:27:03.862Z,100770.94
2022-09-02T04:29:37.147Z,100773.39
2022-09-02T04:32:09.358Z,100769.36
2022-09-02T04:34:43.181Z,100762.54
2022-09-02T04:37:15.318Z,100761.73
2022-09-02T04:39:47.379Z,100764.95
2022-09-02T04:42:19.918Z,100761.31
2022-09-02T04:44:53.824Z,100761.09
2022-09-02T04:47:27.853Z,100754.97
2022-09-02T04:50:00.245Z,100756.98
2022-09-02T04:52:32.315Z,100754.05
2022-09-02T04:55:07.117Z,100752.89
2022-09-02T04:57:39.487Z,100750.59
2022-09-02T05:00:13.520Z,100753.53
2022-09-02T05:02:45.466Z,100752.76
2022-09-02T05:05:18.225Z,100744.77
2022-09-02T05:07:50.401Z,100746.02
2022-09-02T05:10:22.642Z,100750.05
2022-09-02T05:12:55.261Z,100751.95
2022-09-02T05:15:27.878Z,100751.48
2022-09-02T05:18:00.750Z,100752.26
2022-09-02T05:20:39.587Z,100745.60
2022-09-02T05:23:11.803Z,100740.31
2022-09-02T05:25:45.131Z,100739.45
2022-09-02T05:28:17.872Z,100734.08
2022-09-02T05:30:49.944Z,100734.75
2022-09-02T05:33:22.939Z,100736.70
2022-09-02T05:35:54.997Z,100736.96
2022-09-02T05:38:28.004Z,100732.31
2022-09-02T05:41:00.773Z,100733.67
2022-09-02T05:43:32.972Z,100732.86
2022-09-02T05:46:09.551Z,100735.02
2022-09-02T05:49:00.017Z,100736.03
2022-09-02T05:51:33.714Z,100738.95
2022-09-02T05:54:06.483Z,100739.42
2022-09-02T05:56:41.110Z,100738.57
2022-09-02T05:59:18.320Z,100737.39
2022-09-02T06:01:51.722Z,100740.52
2022-09-02T06:04:26.034Z,100736.11
2022-09-02T06:06:58.202Z,100726.98
2022-09-02T06:09:30.718Z,100729.45
2022-09-02T06:12:03.296Z,100728.89
2022-09-02T06:14:38.087Z,100734.33
2022-09-02T06:17:11.148Z,100733.60
2022-09-02T06:19:52.743Z,100735.44
2022-09-02T06:22:27.287Z,100734.34
2022-09-02T06:24:59.842Z,100737.38
2022-09-02T06:27:32.009Z,100746.91
2022-09-02T06:30:06.317Z,100745.45
2022-09-02T06:32:39.459Z,100747.86
2022-09-02T06:35:14.836Z,100746.12
2022-09-02T06:37:50.859Z,100742.77
2022-09-02T06:40:24.224Z,100741.99
2022-09-02T06:43:00.506Z,100743.38
2022-09-02T06:45:42.058Z,100745.50
2022-09-02T06:48:15.510Z,100745.59
2022-09-02T06:50:48.775Z,100749.16
2022-09-02T06:53:21.456Z,100750.54
2022-09-02T06:55:53.626Z,100755.34
2022-09-02T06:58:26.237Z,100756.11
2022-09-02T07:00:58.665Z,100757.30
2022-09-02T07:03:49.130Z,100757.02
2022-09-02T07:06:22.746Z,100755.45
2022-09-02T07:08:55.323Z,100755.42
2022-09-02T07:11:28.113Z,100753.06
2022-09-02T07:14:01.876Z,100755.25
2022-09-02T07:16:36.821Z,100760.02
2022-09-02T07:19:14.091Z,100757.05
2022-09-02T07:21:47.939Z,100759.09
2022-09-02T07:24:20.772Z,100754.39
2022-09-02T07:26:55.438Z,100758.27
2022-09-02T07:29:29.075Z,100758.34
2022-09-02T07:32:02.341Z,100761.36
2022-09-02T07:34:34.601Z,100761.29
2022-09-02T07:37:10.613Z,100760.55
2022-09-02T07:39:44.099Z,100756.77
2022-09-02T07:42:17.141Z,100759.89
2022-09-02T07:44:51.196Z,100765.48
2022-09-02T07:47:23.220Z,100762.16
2022-09-02T07:52:50.669Z,100759.48
2022-09-02T07:55:23.546Z,100764.59
2022-09-02T07:57:56.107Z,100758.95
2022-09-02T08:00:29.025Z,100758.16
2022-09-02T08:03:05.812Z,100762.27
2022-09-02T08:05:45.026Z,100762.45
2022-09-02T08:08:20.263Z,100761.20
2022-09-02T08:10:54.307Z,100758.94
2022-09-02T08:13:27.061Z,100757.77
2022-09-02T08:16:00.123Z,100757.73
2022-09-02T08:18:32.352Z,100759.27
2022-09-02T08:21:05.115Z,100762.16
2022-09-02T08:23:37.833Z,100759.77
2022-09-02T08:26:11.356Z,100761.47
2022-09-02T08:28:43.416Z,100765.09
2022-09-02T08:31:15.472Z,100756.35
2022-09-02T08:33:47.658Z,100760.64
2022-09-02T08:36:21.189Z,100754.89
2022-09-02T08:38:53.116Z,100759.23
2022-09-02T08:41:27.270Z,100759.67
2022-09-02T08:44:02.442Z,100759.25
2022-09-02T08:46:36.080Z,100757.11
2022-09-02T08:49:16.104Z,100753.55
2022-09-02T08:51:53.428Z,100754.73
2022-09-02T08:54:31.715Z,100756.23
2022-09-02T08:57:03.630Z,100749.24
2022-09-02T08:59:36.814Z,100750.08
2022-09-02T09:02:21.722Z,100745.27
2022-09-02T09:05:06.808Z,100748.99
2022-09-02T09:07:47.975Z,100744.80
2022-09-02T09:10:26.683Z,100742.95
2022-09-02T09:13:08.898Z,100742.34
2022-09-02T09:15:51.188Z,100736.16
2022-09-02T09:18:30.548Z,100735.77
2022-09-02T09:21:03.389Z,100731.52
2022-09-02T09:23:39.055Z,100733.47
2022-09-02T09:26:13.694Z,100733.77
2022-09-02T09:28:48.215Z,100736.83
2022-09-02T09:31:25.255Z,100729.11
2022-09-02T09:34:02.389Z,100727.35
2022-09-02T09:36:51.646Z,100729.60
2022-09-02T09:39:30.117Z,100727.83
2022-09-02T09:42:04.027Z,100727.08
2022-09-02T09:44:48.242Z,100723.34
2022-09-02T09:47:23.057Z,100722.34
2022-09-02T09:50:10.791Z,100720.42
2022-09-02T09:52:44.417Z,100722.35
2022-09-02T09:55:24.862Z,100721.58
2022-09-02T09:58:11.197Z,100720.48
2022-09-02T10:00:44.222Z,100715.77
2022-09-02T10:03:26.663Z,100713.10
2022-09-02T10:06:22.634Z,100715.63
2022-09-02T10:08:57.311Z,100709.14
2022-09-02T10:11:31.720Z,100707.52
2022-09-02T10:14:05.282Z,100709.17
2022-09-02T10:16:54.779Z,100701.61
2022-09-02T10:19:36.240Z,100704.48
2022-09-02T10:22:37.919Z,100698.15
2022-09-02T10:25:35.060Z,100700.09
2022-09-02T10:28:17.552Z,100700.09
2022-09-02T10:30:57.051Z,100695.96
2022-09-02T10:33:37.584Z,100696.15
2022-09-02T10:36:23.315Z,100699.54
2022-09-02T10:39:03.713Z,100700.15
2022-09-02T10:44:31.451Z,100696.54
2022-09-02T10:47:06.851Z,100698.95
2022-09-02T10:49:55.338Z,100700.79
2022-09-02T10:52:42.653Z,100701.15
2022-09-02T10:55:23.234Z,100699.45
2022-09-02T10:58:01.314Z,100698.64
2022-09-02T11:00:36.412Z,100697.83
2022-09-02T11:03:14.611Z,100694.39
2022-09-02T11:05:52.962Z,100691.20
2022-09-02T11:08:37.682Z,100694.92
2022-09-02T11:11:14.888Z,100689.80
2022-09-02T11:13:59.874Z,100684.44
2022-09-02T11:19:16.275Z,100698.31
2022-09-02T11:21:58.166Z,100692.23
2022-09-02T11:24:36.240Z,100693.87
2022-09-02T11:27:32.266Z,100692.01
2022-09-02T11:30:06.956Z,100693.98
2022-09-02T11:32:44.134Z,100697.30
2022-09-02T11:35:21.723Z,100694.77
2022-09-02T11:37:58.242Z,100690.33
2022-09-02T11:40:38.869Z,100685.44
2022-09-02T11:43:33.194Z,100676.98
2022-09-02T11:46:46.446Z,100678.80
2022-09-02T11:49:44.071Z,100671.63
2022-09-02T11:52:29.698Z,100670.78
2022-09-02T11:55:12.388Z,100671.52
2022-09-02T11:57:44.932Z,100671.34
2022-09-02T12:00:31.653Z,100667.30
2022-09-02T12:03:42.952Z,100661.79
2022-09-02T12:06:20.531Z,100659.88
2022-09-02T12:09:12.408Z,100657.69
2022-09-02T12:11:53.241Z,100653.55
2022-09-02T12:15:11.651Z,100658.05
2022-09-02T12:18:17.369Z,100651.38
2022-09-02T12:21:16.357Z,100647.03
2022-09-02T12:24:13.234Z,100644.14
2022-09-02T12:27:08.154Z,100642.97
2022-09-02T12:29:40.286Z,100642.66
2022-09-02T12:32:12.491Z,100644.95
2022-09-02T12:34:57.919Z,100646.61
2022-09-02T12:37:54.382Z,100648.86
2022-09-02T12:40:52.244Z,100645.23
2022-09-02T12:43:31.147Z,100642.27
2022-09-02T12:46:12.561Z,100639.02
2022-09-02T12:48:53.057Z,100636.34
2022-09-02T12:51:56.552Z,100638.19
2022-09-02T12:54:37.881Z,100632.32
2022-09-02T12:57:11.626Z,100633.64
2022-09-02T12:59:45.080Z,100640.16
2022-09-02T13:02:45.846Z,100633.92
2022-09-02T13:05:26.759Z,100634.27
2022-09-02T13:08:34.425Z,100633.51
2022-09-02T13:11:46.417Z,100632.44
2022-09-02T13:14:43.913Z,100633.51
2022-09-02T13:17:37.088Z,100628.95
2022-09-02T13:20:55.177Z,100625.41
2022-09-02T13:24:14.071Z,100623.99
2022-09-02T13:27:03.609Z,100619.00
2022-09-02T13:30:02.226Z,100619.89
2022-09-02T13:32:35.186Z,100611.19
2022-09-02T13:35:11.768Z,100614.95
2022-09-02T13:37:43.539Z,100609.77
2022-09-02T13:40:24.805Z,100605.00
2022-09-02T13:42:58.798Z,100604.45
2022-09-02T13:45:34.053Z,100597.23
2022-09-02T13:48:12.204Z,100590.60
2022-09-02T13:50:47.979Z,100597.34
2022-09-02T13:53:59.101Z,100594.73
2022-09-02T13:56:30.663Z,100591.94
2022-09-02T13:59:02.521Z,100586.92
2022-09-02T14:01:38.273Z,100592.47
2022-09-02T14:04:16.248Z,100592.14
2022-09-02T14:06:50.812Z,100584.94
2022-09-02T14:09:27.285Z,100584.14
2022-09-02T14:12:00.517Z,100580.36
2022-09-02T14:14:32.855Z,100585.55
2022-09-02T14:17:25.262Z,100584.09
2022-09-02T14:20:11.976Z,100583.11
2022-09-02T14:22:44.853Z,100584.95
2022-09-02T14:25:18.144Z,100584.83
2022-09-02T14:27:54.230Z,100583.77
2022-09-02T14:30:34.838Z,100582.76
2022-09-02T14:33:28.555Z,100589.41
2022-09-02T14:36:05.785Z,100592.55
2022-09-02T14:38:50.818Z,100584.90
2022-09-02T14:41:28.600Z,100587.01
2022-09-02T14:44:09.271Z,100585.40
2022-09-02T14:46:45.802Z,100582.23
2022-09-02T14:49:24.559Z,100579.27
2022-09-02T14:51:59.093Z,100581.84
2022-09-02T14:54:43.141Z,100581.33
2022-09-02T14:57:28.084Z,100579.62
2022-09-02T15:00:01.691Z,100585.72
2022-09-02T15:02:36.928Z,100576.84
2022-09-02T15:05:14.503Z,100576.87
2022-09-02T15:07:46.665Z,100573.66
2022-09-02T15:10:18.551Z,100572.23
2022-09-02T15:12:54.909Z,100568.14
2022-09-02T15:15:27.781Z,100570.66
2022-09-02T15:18:00.310Z,100573.90
2022-09-02T15:20:32.318Z,100567.79
2022-09-02T15:23:04.342Z,100566.52
2022-09-02T15:25:36.478Z,100560.72
2022-09-02T15:28:08.414Z,100566.06
2022-09-02T15:30:40.782Z,100561.05
2022-09-02T15:33:14.724Z,100563.00
2022-09-02T15:35:50.023Z,100560.54
2022-09-02T15:38:22.437Z,100559.29
2022-09-02T15:40:54.472Z,100558.14
2022-09-02T15:43:27.052Z,100558.52
2022-09-02T15:45:58.950Z,100558.65
2022-09-02T15:48:33.479Z,100554.11
2022-09-02T15:51:13.833Z,100560.94
2022-09-02T15:53:46.190Z,100562.27
2022-09-02T15:56:24.137Z,100564.13
2022-09-02T15:59:00.082Z,100563.55
2022-09-02T16:01:33.764Z,100562.01
2022-09-02T16:04:06.928Z,100563.15
2022-09-02T16:06:41.321Z,100562.73
2022-09-02T16:09:15.208Z,100561.33
2022-09-02T16:11:51.542Z,100559.55
2022-09-02T16:14:24.779Z,100557.23
2022-09-02T16:16:58.254Z,100554.70
2022-09-02T16:19:30.638Z,100553.38
2022-09-02T16:22:03.137Z,100555.55
2022-09-02T16:24:37.598Z,100557.81
2022-09-02T16:27:10.099Z,100559.95
2022-09-02T16:29:42.369Z,100555.05
2022-09-02T16:32:26.753Z,100560.27
2022-09-02T16:34:59.814Z,100558.06
2022-09-02T16:37:31.724Z,100557.45
2022-09-02T16:40:04.747Z,100555.98
2022-09-02T16:42:38.419Z,100557.24
2022-09-02T16:45:14.202Z,100560.02
2022-09-02T16:47:46.152Z,100561.38
2022-09-02T16:50:18.450Z,100563.56
2022-09-02T16:52:50.555Z,100564.27
2022-09-02T16:55:22.348Z,100564.98
2022-09-02T16:57:54.288Z,100564.86
2022-09-02T17:00:26.621Z,100562.09
2022-09-02T17:02:58.690Z,100568.02
2022-09-02T17:05:31.033Z,100568.92
2022-09-02T17:08:03.294Z,100571.42
2022-09-02T17:10:36.056Z,100569.08
2022-09-02T17:13:07.942Z,100571.60
2022-09-02T17:15:40.533Z,100570.20
2022-09-02T17:18:12.597Z,100572.66
2022-09-02T17:20:44.561Z,100575.65
2022-09-02T17:23:17.031Z,100581.11
2022-09-02T17:25:49.472Z,100585.15
2022-09-02T17:28:21.546Z,100581.05
2022-09-02T17:30:53.651Z,100583.24
2022-09-02T17:33:25.779Z,100584.66
2022-09-02T17:36:01.745Z,100583.91
2022-09-02T17:38:33.582Z,100586.27
2022-09-02T17:41:23.297Z,100584.11
2022-09-02T17:43:55.704Z,100589.70
2022-09-02T17:46:27.893Z,100587.23
2022-09-02T17:49:16.311Z,100589.67
2022-09-02T17:51:50.376Z,100589.44
2022-09-02T17:54:23.529Z,100585.96
2022-09-02T17:57:09.752Z,100591.40
2022-09-02T17:59:53.455Z,100592.77
2022-09-02T18:02:50.943Z,100596.52
2022-09-02T18:05:32.531Z,100598.46
2022-09-02T18:08:10.482Z,100598.75
2022-09-02T18:10:52.846Z,100602.33
2022-09-02T18:13:35.312Z,100599.27
2022-09-02T18:16:20.901Z,100597.06
2022-09-02T18:19:04.554Z,100598.77
2022-09-02T18:21:49.401Z,100602.84
2022-09-02T18:24:36.194Z,100605.14
2022-09-02T18:27:17.833Z,100605.56
2022-09-02T18:30:01.229Z,100606.27
2022-09-02T18:32:48.515Z,100609.27
2022-09-02T18:35:32.905Z,100608.92
2022-09-02T18:38:16.876Z,100610.33
2022-09-02T18:40:54.726Z,100609.88
2022-09-02T18:43:34.903Z,100611.77
2022-09-02T18:46:08.857Z,100611.55
2022-09-02T18:48:42.035Z,100612.63
2022-09-02T18:51:24.481Z,100616.65
2022-09-02T18:54:01.084Z,100616.98
2022-09-02T18:56:38.966Z,100616.61
2022-09-02T18:59:14.250Z,100616.80
2022-09-02T19:01:50.977Z,100614.14
2022-09-02T19:04:29.438Z,100610.07
2022-09-02T19:07:16.362Z,100607.69
2022-09-02T19:09:49.502Z,100609.11
2022-09-02T19:12:22.012Z,100611.42
2022-09-02T19:14:54.186Z,100611.15
2022-09-02T19:17:26.249Z,100611.02
2022-09-02T19:19:58.112Z,100610.82
2022-09-02T19:22:30.701Z,100612.92
2022-09-02T19:25:08.494Z,100614.13
2022-09-02T19:27:43.238Z,100614.77
2022-09-02T19:30:18.790Z,100621.21
2022-09-02T19:32:53.028Z,100625.39
2022-09-02T19:35:30.882Z,100625.73
2022-09-02T19:38:03.707Z,100629.16
2022-09-02T19:40:40.069Z,100624.45
2022-09-02T19:43:13.031Z,100628.55
2022-09-02T19:45:48.997Z,100629.82
2022-09-02T19:48:21.725Z,100629.13
2022-09-02T19:50:54.015Z,100632.66
2022-09-02T19:53:30.396Z,100635.74
2022-09-02T19:56:02.769Z,100637.39
2022-09-02T19:58:34.905Z,100636.40
2022-09-02T20:01:09.248Z,100636.00
2022-09-02T20:03:41.314Z,100636.66
2022-09-02T20:06:13.401Z,100639.41
2022-09-02T20:08:45.977Z,100639.40
2022-09-02T20:11:18.732Z,100640.48
2022-09-02T20:13:50.956Z,100638.08
2022-09-02T20:16:25.277Z,100634.69
2022-09-02T20:18:57.882Z,100638.06
2022-09-02T20:21:31.853Z,100639.48
2022-09-02T20:24:08.247Z,100638.70
2022-09-02T20:26:49.759Z,100641.47
2022-09-02T20:29:32.547Z,100643.69
2022-09-02T20:32:14.054Z,100636.70
2022-09-02T20:35:03.837Z,100637.79
2022-09-02T20:37:50.691Z,100640.23
2022-09-02T20:40:34.933Z,100640.60
2022-09-02T20:43:36.409Z,100637.92
2022-09-02T20:46:22.280Z,100639.20
2022-09-02T20:49:12.211Z,100641.90
2022-09-02T20:51:55.000Z,100639.25
2022-09-02T20:54:39.350Z,100639.58
2022-09-02T20:57:23.556Z,100646.48
2022-09-02T21:00:07.305Z,100646.77
2022-09-02T21:02:46.369Z,100644.11
2022-09-02T21:05:22.811Z,100647.38
2022-09-02T21:08:02.780Z,100645.95
2022-09-02T21:10:39.322Z,100647.00
2022-09-02T21:13:16.490Z,100646.84
2022-09-02T21:15:54.955Z,100646.81
2022-09-02T21:18:34.436Z,100648.46
2022-09-02T21:21:12.674Z,100647.70
2022-09-02T21:23:49.050Z,100648.09
2022-09-02T21:26:26.113Z,100648.79
2022-09-02T21:29:06.063Z,100647.58
2022-09-02T21:31:43.425Z,100651.85
2022-09-02T21:34:22.583Z,100650.51
2022-09-02T21:36:57.043Z,100651.73
2022-09-02T21:39:32.674Z,100647.16
2022-09-02T21:42:16.423Z,100648.55
2022-09-02T21:45:05.064Z,100649.16
2022-09-02T21:47:47.320Z,100646.92
2022-09-02T21:50:29.796Z,100644.41
2022-09-02T21:53:16.859Z,100647.40
2022-09-02T21:55:59.355Z,100644.55
2022-09-02T21:58:48.384Z,100638.73
2022-09-02T22:01:35.523Z,100636.62
2022-09-02T22:04:24.427Z,100637.44
2022-09-02T22:07:01.142Z,100641.35
2022-09-02T22:09:34.229Z,100640.04
2022-09-02T22:12:11.188Z,100645.05
2022-09-02T22:14:50.730Z,100644.36
2022-09-02T22:17:33.721Z,100645.30
2022-09-02T22:20:09.828Z,100647.13
2022-09-02T22:22:47.171Z,100643.26
2022-09-02T22:25:23.430Z,100648.86
2022-09-02T22:28:04.732Z,100648.35
2022-09-02T22:30:40.817Z,100652.17
2022-09-02T22:33:17.764Z,100651.10
2022-09-02T22:35:52.537Z,100652.12
2022-09-02T22:38:30.405Z,100646.73
2022-09-02T22:41:07.390Z,100644.97
2022-09-02T22:43:42.029Z,100645.52
2022-09-02T22:46:40.133Z,100649.56
2022-09-02T22:49:29.151Z,100651.20
2022-09-02T22:52:31.220Z,100651.17
2022-09-02T22:55:03.479Z,100649.37
2022-09-02T22:57:45.947Z,100648.08
2022-09-02T23:00:20.715Z,100647.20
2022-09-02T23:03:06.727Z,100645.75
2022-09-02T23:05:56.470Z,100646.73
2022-09-02T23:08:28.329Z,100646.05
2022-09-02T23:11:06.731Z,100647.27
2022-09-02T23:13:53.384Z,100645.23
2022-09-02T23:16:35.295Z,100647.05
2022-09-02T23:19:17.339Z,100644.19
2022-09-02T23:22:01.167Z,100645.95
2022-09-02T23:24:45.375Z,100649.09
2022-09-02T23:27:27.047Z,100648.73
2022-09-02T23:29:59.117Z,100648.91
2022-09-02T23:32:46.528Z,100652.92
2022-09-02T23:35:24.286Z,100654.30
2022-09-02T23:38:18.483Z,100653.33
2022-09-02T23:40:58.353Z,100649.48
2022-09-02T23:43:30.780Z,100652.80
2022-09-02T23:46:15.892Z,100651.88
2022-09-02T23:48:56.477Z,100650.52
2022-09-02T23:51:36.700Z,100650.12
2022-09-02T23:54:25.695Z,100646.98
2022-09-02T23:57:09.642Z,100644.79
